Time;durP1;ratioP1;P1;durP2;ratioP2;P2;SDS_P1;SDS_P2;PMS_P1;PMS_P2;Temp;Humidity;BMP_temperature;BMP_pressure;BME280_temperature;BME280_humidity;BME280_pressure;Samples;Min_cycle;Max_cycle;Signal;HPM_P1;HPM_P2
2023/07/29 00:01:53;;;;;;;4.90;2.23;;;18.20;95.00;;;;;;5036040;28;20051;-71
2023/07/29 00:04:20;;;;;;;4.77;2.10;;;18.20;95.10;;;;;;5042300;28;20029;-71
2023/07/29 00:06:46;;;;;;;5.07;3.00;;;18.20;95.20;;;;;;5053798;28;20083;-71
2023/07/29 00:09:12;;;;;;;3.83;2.47;;;18.20;95.20;;;;;;5046359;28;20088;-71
2023/07/29 00:11:38;;;;;;;3.83;2.60;;;18.10;95.20;;;;;;5034117;28;20045;-71
2023/07/29 00:14:04;;;;;;;3.70;2.63;;;18.10;95.30;;;;;;5048464;28;20369;-71
2023/07/29 00:16:29;;;;;;;5.40;3.00;;;18.10;95.40;;;;;;5029825;28;20043;-71
2023/07/29 00:18:55;;;;;;;6.10;2.83;;;18.10;95.40;;;;;;5047624;28;20094;-71
2023/07/29 00:21:21;;;;;;;6.93;2.60;;;18.10;95.50;;;;;;5030939;28;20033;-71
2023/07/29 00:23:46;;;;;;;6.30;3.03;;;18.10;95.60;;;;;;5043547;28;20041;-71
2023/07/29 00:26:12;;;;;;;7.87;3.30;;;18.00;95.60;;;;;;5043242;28;20410;-71
2023/07/29 00:28:38;;;;;;;5.43;3.37;;;18.00;95.70;;;;;;5040333;28;20094;-71
2023/07/29 00:31:03;;;;;;;5.43;3.03;;;18.00;95.70;;;;;;5036650;28;20049;-71
2023/07/29 00:33:29;;;;;;;5.27;3.00;;;18.00;95.80;;;;;;5043613;28;20145;-71
2023/07/29 00:35:55;;;;;;;6.20;3.77;;;18.00;96.00;;;;;;5048302;28;20029;-71
2023/07/29 00:38:21;;;;;;;4.20;2.57;;;18.00;96.00;;;;;;5038545;28;20045;-71
2023/07/29 00:40:46;;;;;;;7.20;3.07;;;18.00;96.20;;;;;;5046058;28;20183;-71
2023/07/29 00:43:12;;;;;;;7.30;3.73;;;18.00;96.30;;;;;;5029861;28;20037;-71
2023/07/29 00:45:38;;;;;;;8.63;3.40;;;18.00;96.30;;;;;;5033413;28;20040;-71
2023/07/29 00:48:05;;;;;;;7.10;3.70;;;18.00;96.40;;;;;;5041463;28;20115;-71
2023/07/29 00:50:32;;;;;;;7.60;3.67;;;18.10;96.40;;;;;;5045420;28;20048;-71
2023/07/29 00:52:58;;;;;;;6.63;3.70;;;18.00;96.40;;;;;;5031183;28;20041;-71
2023/07/29 00:55:24;;;;;;;8.20;4.23;;;18.00;96.50;;;;;;5036205;28;20585;-71
2023/07/29 00:57:54;;;;;;;9.90;3.77;;;18.00;96.40;;;;;;5034417;28;20052;-71
2023/07/29 01:00:20;;;;;;;7.67;4.13;;;18.00;96.50;;;;;;5029667;28;20133;-71
2023/07/29 01:02:46;;;;;;;9.13;4.63;;;18.00;96.50;;;;;;5044800;28;20076;-71
2023/07/29 01:05:13;;;;;;;10.00;4.40;;;17.90;96.80;;;;;;5045350;28;20472;-71
2023/07/29 01:07:57;;;;;;;9.07;4.40;;;17.90;97.10;;;;;;5045874;28;20409;-71
2023/07/29 01:10:49;;;;;;;7.23;3.47;;;17.90;97.10;;;;;;5039377;28;20306;-71
2023/07/29 01:13:36;;;;;;;7.67;4.20;;;18.00;97.20;;;;;;5046782;28;20087;-71
2023/07/29 01:16:17;;;;;;;9.27;4.20;;;18.00;97.30;;;;;;5031838;28;20467;-71
2023/07/29 01:18:46;;;;;;;5.13;3.20;;;18.00;97.60;;;;;;5037328;28;20045;-71
2023/07/29 01:21:14;;;;;;;5.07;3.23;;;18.00;97.40;;;;;;5044318;28;20084;-71
2023/07/29 01:23:39;;;;;;;6.23;4.17;;;18.00;97.20;;;;;;5050163;28;20352;-71
2023/07/29 01:26:05;;;;;;;7.20;3.63;;;17.90;97.40;;;;;;5047906;28;20402;-71
2023/07/29 01:28:32;;;;;;;6.73;3.47;;;17.90;97.50;;;;;;5041050;28;20402;-71
2023/07/29 01:31:07;;;;;;;8.53;3.80;;;17.90;97.50;;;;;;5042871;28;20108;-71
2023/07/29 01:33:38;;;;;;;;;;;17.80;97.50;;;;;;5044047;28;20675;-71
2023/07/29 01:36:22;;;;;;;5.73;3.30;;;17.80;97.80;;;;;;5049994;28;19927;-71
2023/07/29 01:38:49;;;;;;;6.03;2.60;;;17.80;97.60;;;;;;5046072;28;20067;-71
2023/07/29 01:41:16;;;;;;;6.60;3.20;;;17.80;97.50;;;;;;5040366;28;20292;-71
2023/07/29 01:43:46;;;;;;;6.83;3.07;;;17.90;97.70;;;;;;5047762;28;20283;-71
2023/07/29 01:46:13;;;;;;;6.13;2.67;;;17.90;97.80;;;;;;5027503;28;20329;-71
2023/07/29 01:48:39;;;;;;;3.87;2.50;;;17.90;97.70;;;;;;5059503;28;20287;-71
2023/07/29 01:51:06;;;;;;;7.00;3.07;;;17.90;97.80;;;;;;5039415;28;20135;-71
2023/07/29 01:53:31;;;;;;;6.50;3.03;;;17.90;98.20;;;;;;5038603;28;20379;-71
2023/07/29 01:55:57;;;;;;;9.63;3.70;;;17.90;98.10;;;;;;5049816;28;20387;-71
2023/07/29 01:58:23;;;;;;;7.00;3.60;;;17.90;98.20;;;;;;5036537;28;20057;-71
2023/07/29 02:00:49;;;;;;;6.77;3.73;;;17.90;98.00;;;;;;5051106;28;20029;-71
2023/07/29 02:03:15;;;;;;;9.33;4.20;;;17.90;98.10;;;;;;5048479;28;20390;-71
2023/07/29 02:05:43;;;;;;;11.37;4.67;;;17.90;98.10;;;;;;5035606;28;20794;-71
2023/07/29 02:08:09;;;;;;;9.20;4.20;;;17.90;98.00;;;;;;5035411;28;20042;-71
2023/07/29 02:10:35;;;;;;;7.00;4.67;;;17.80;98.20;;;;;;5038669;28;20855;-71
2023/07/29 02:13:01;;;;;;;9.40;4.50;;;17.80;98.20;;;;;;5046801;28;20326;-71
2023/07/29 02:15:26;;;;;;;9.30;3.70;;;17.70;98.10;;;;;;5041385;28;20039;-71
2023/07/29 02:17:52;;;;;;;8.10;3.50;;;17.60;98.40;;;;;;5042121;28;20124;-71
2023/07/29 02:20:18;;;;;;;6.37;3.13;;;17.60;98.30;;;;;;5038781;28;20094;-71
2023/07/29 02:22:43;;;;;;;7.80;3.37;;;17.50;98.50;;;;;;5053552;28;20030;-71
2023/07/29 02:25:09;;;;;;;7.23;2.83;;;17.50;98.50;;;;;;5046450;28;20119;-71
2023/07/29 02:27:35;;;;;;;12.23;3.20;;;17.40;98.70;;;;;;5044191;28;20037;-71
2023/07/29 02:30:02;;;;;;;5.17;2.53;;;17.40;98.70;;;;;;5043420;28;20280;-71
2023/07/29 02:32:28;;;;;;;5.83;2.57;;;17.30;98.80;;;;;;5047294;28;20061;-71
2023/07/29 02:34:53;;;;;;;4.03;2.30;;;17.30;98.90;;;;;;5044475;28;20380;-71
2023/07/29 02:37:19;;;;;;;6.87;2.47;;;17.30;99.10;;;;;;5043288;28;20056;-71
2023/07/29 02:39:45;;;;;;;11.23;2.63;;;17.30;99.10;;;;;;5043274;28;20071;-71
2023/07/29 02:42:11;;;;;;;5.37;2.00;;;17.20;99.20;;;;;;5036174;28;20292;-71
2023/07/29 02:44:37;;;;;;;6.03;2.17;;;17.20;99.20;;;;;;5039869;28;20041;-71
2023/07/29 02:47:03;;;;;;;5.97;2.13;;;17.10;99.30;;;;;;5046162;28;20650;-71
2023/07/29 02:49:29;;;;;;;5.07;2.00;;;17.10;99.30;;;;;;5036979;28;20045;-71
2023/07/29 02:51:55;;;;;;;4.87;2.33;;;17.10;99.30;;;;;;5030308;28;20288;-71
2023/07/29 02:54:20;;;;;;;6.80;2.20;;;17.00;99.30;;;;;;5022824;28;20041;-71
2023/07/29 02:56:46;;;;;;;6.70;2.30;;;17.00;99.40;;;;;;5043335;28;20550;-71
2023/07/29 02:59:12;;;;;;;13.43;2.20;;;16.90;99.50;;;;;;5037052;28;20037;-71
2023/07/29 03:01:37;;;;;;;6.53;2.10;;;16.90;99.50;;;;;;5046404;28;20090;-71
2023/07/29 03:04:03;;;;;;;10.87;2.00;;;16.90;99.50;;;;;;5050083;28;20425;-71
2023/07/29 03:06:29;;;;;;;7.13;1.83;;;16.90;99.60;;;;;;5045668;28;20120;-71
2023/07/29 03:08:55;;;;;;;5.50;1.93;;;16.80;99.40;;;;;;5037031;28;20037;-71
2023/07/29 03:11:20;;;;;;;8.30;1.93;;;16.80;99.40;;;;;;5041684;28;20532;-71
2023/07/29 03:13:46;;;;;;;3.33;1.90;;;16.80;99.40;;;;;;5044416;28;20049;-71
2023/07/29 03:16:14;;;;;;;5.50;1.83;;;16.80;99.40;;;;;;5027230;28;20040;-71
2023/07/29 03:18:41;;;;;;;9.67;1.93;;;16.70;99.40;;;;;;5024265;28;20059;-71
2023/07/29 03:21:07;;;;;;;6.87;1.67;;;16.70;99.40;;;;;;5060918;28;20767;-71
2023/07/29 03:23:34;;;;;;;7.30;1.70;;;16.70;99.40;;;;;;5034050;28;20298;-71
2023/07/29 03:26:01;;;;;;;5.30;2.10;;;16.70;99.50;;;;;;5045937;28;20722;-71
2023/07/29 03:28:28;;;;;;;8.47;2.10;;;16.70;99.50;;;;;;5045367;28;20322;-71
2023/07/29 03:30:55;;;;;;;10.73;1.70;;;16.60;99.40;;;;;;5034282;28;20840;-71
2023/07/29 03:33:21;;;;;;;4.53;1.87;;;16.60;99.60;;;;;;5047782;28;20695;-71
2023/07/29 03:35:47;;;;;;;3.70;1.60;;;16.60;99.90;;;;;;5037925;28;20340;-71
2023/07/29 03:38:13;;;;;;;9.17;2.00;;;16.60;99.70;;;;;;5036732;28;20467;-71
2023/07/29 03:40:39;;;;;;;8.33;1.83;;;16.60;99.60;;;;;;5045239;28;20292;-71
2023/07/29 03:43:05;;;;;;;8.07;1.93;;;16.60;99.70;;;;;;5047126;28;20136;-71
2023/07/29 03:45:31;;;;;;;8.23;2.13;;;16.60;99.60;;;;;;5027396;28;20362;-71
2023/07/29 03:47:57;;;;;;;7.43;1.80;;;16.60;99.50;;;;;;5024570;28;20613;-71
2023/07/29 03:50:23;;;;;;;6.60;1.80;;;16.60;99.50;;;;;;5044324;28;20296;-71
2023/07/29 03:52:48;;;;;;;6.80;1.77;;;16.60;99.60;;;;;;5037951;28;20049;-71
2023/07/29 03:55:14;;;;;;;7.90;2.37;;;16.60;99.80;;;;;;5037650;28;20045;-71
2023/07/29 03:57:40;;;;;;;6.47;1.80;;;16.60;99.70;;;;;;5044915;28;20121;-71
2023/07/29 04:00:06;;;;;;;7.93;1.77;;;16.50;99.80;;;;;;5040632;28;20037;-71
2023/07/29 04:02:31;;;;;;;5.00;1.40;;;16.50;99.80;;;;;;5022458;28;20389;-71
2023/07/29 04:04:57;;;;;;;4.83;1.63;;;16.50;99.90;;;;;;5040845;28;20317;-71
2023/07/29 04:07:23;;;;;;;4.77;1.70;;;16.50;99.80;;;;;;5048670;28;20134;-71
2023/07/29 04:09:49;;;;;;;4.70;1.70;;;16.50;99.90;;;;;;5043854;28;20128;-71
2023/07/29 04:12:15;;;;;;;7.73;2.10;;;16.60;99.90;;;;;;5041260;28;20143;-71
2023/07/29 04:14:41;;;;;;;5.27;1.77;;;16.60;99.90;;;;;;5047743;28;20037;-71
2023/07/29 04:17:07;;;;;;;7.17;2.27;;;16.60;99.90;;;;;;5045218;28;20282;-71
2023/07/29 04:19:33;;;;;;;7.60;2.10;;;16.60;99.90;;;;;;5050452;28;20784;-71
2023/07/29 04:21:59;;;;;;;5.90;1.90;;;16.60;99.90;;;;;;5043996;28;20282;-71
2023/07/29 04:24:25;;;;;;;7.37;2.23;;;16.70;99.90;;;;;;5030362;28;20444;-71
2023/07/29 04:26:50;;;;;;;4.47;1.50;;;16.70;99.90;;;;;;5025776;28;20280;-71
2023/07/29 04:29:16;;;;;;;11.47;2.30;;;16.70;99.90;;;;;;5044566;28;20068;-71
2023/07/29 04:31:42;;;;;;;2.70;1.70;;;16.70;99.80;;;;;;5032038;28;20043;-71
2023/07/29 04:34:08;;;;;;;8.97;2.30;;;16.70;99.90;;;;;;5042331;28;20295;-71
2023/07/29 04:36:34;;;;;;;9.40;2.07;;;16.70;99.80;;;;;;5047630;28;20041;-71
2023/07/29 04:39:00;;;;;;;7.57;2.17;;;16.80;99.80;;;;;;5043528;28;20410;-71
2023/07/29 04:41:26;;;;;;;6.60;2.47;;;16.80;99.80;;;;;;5031170;28;20372;-71
2023/07/29 04:43:52;;;;;;;7.20;2.07;;;16.80;99.70;;;;;;5036710;28;20070;-71
2023/07/29 04:46:18;;;;;;;8.60;2.20;;;16.80;99.70;;;;;;5042084;28;20049;-71
2023/07/29 04:48:44;;;;;;;7.27;2.43;;;16.90;99.70;;;;;;5044270;28;20275;-71
2023/07/29 04:51:09;;;;;;;11.53;2.37;;;16.90;99.80;;;;;;5046644;28;20527;-71
2023/07/29 04:53:36;;;;;;;10.47;2.10;;;17.00;99.80;;;;;;5025643;28;20073;-71
2023/07/29 04:56:02;;;;;;;7.67;2.10;;;17.00;99.80;;;;;;5038974;28;20049;-71
2023/07/29 04:58:29;;;;;;;8.17;2.73;;;17.10;99.70;;;;;;5043736;28;20268;-71
2023/07/29 05:00:55;;;;;;;5.27;2.30;;;17.10;99.70;;;;;;5055519;28;20279;-71
2023/07/29 05:03:21;;;;;;;6.17;2.37;;;17.10;99.80;;;;;;5044052;28;20315;-71
2023/07/29 05:05:47;;;;;;;9.47;2.90;;;17.10;99.60;;;;;;5038097;28;20386;-71
2023/07/29 05:08:13;;;;;;;9.17;2.83;;;17.20;99.60;;;;;;5037649;28;20044;-71
2023/07/29 05:10:38;;;;;;;7.73;2.70;;;17.20;99.60;;;;;;5028791;28;20102;-71
2023/07/29 05:13:04;;;;;;;9.60;2.90;;;17.30;99.50;;;;;;5051018;28;20049;-71
2023/07/29 05:15:30;;;;;;;7.97;2.47;;;17.30;99.50;;;;;;5039391;28;20124;-71
2023/07/29 05:17:56;;;;;;;8.67;3.10;;;17.30;99.40;;;;;;5040345;28;20059;-71
2023/07/29 05:20:22;;;;;;;10.33;3.10;;;17.40;99.40;;;;;;5057807;28;20094;-71
2023/07/29 05:22:47;;;;;;;10.63;2.90;;;17.40;99.30;;;;;;5049445;28;20280;-71
2023/07/29 05:25:13;;;;;;;9.77;2.90;;;17.40;99.20;;;;;;5040621;28;20072;-71
2023/07/29 05:27:39;;;;;;;8.40;3.13;;;17.40;99.30;;;;;;5043485;28;20102;-71
2023/07/29 05:30:06;;;;;;;9.00;2.80;;;17.40;99.10;;;;;;5045380;28;20041;-71
2023/07/29 05:32:32;;;;;;;14.10;3.43;;;17.50;99.20;;;;;;5053342;28;20052;-71
2023/07/29 05:34:58;;;;;;;14.13;3.23;;;17.50;99.20;;;;;;5050650;28;20291;-71
2023/07/29 05:37:23;;;;;;;9.77;3.10;;;17.50;99.10;;;;;;5047681;28;20043;-71
2023/07/29 05:39:49;;;;;;;9.67;3.23;;;17.50;99.00;;;;;;5051949;28;20397;-71
2023/07/29 05:42:15;;;;;;;10.97;3.03;;;17.50;99.10;;;;;;5047082;28;20041;-71
2023/07/29 05:44:40;;;;;;;9.13;3.50;;;17.50;98.80;;;;;;5050780;28;20552;-71
2023/07/29 05:47:06;;;;;;;10.97;3.10;;;17.60;98.70;;;;;;5041467;28;20056;-71
2023/07/29 05:49:32;;;;;;;10.63;3.00;;;17.60;98.50;;;;;;5043088;28;20041;-71
2023/07/29 05:51:58;;;;;;;10.73;3.40;;;17.70;98.50;;;;;;5049836;28;20148;-71
2023/07/29 05:54:23;;;;;;;9.27;3.00;;;17.70;98.40;;;;;;5034800;28;20120;-71
2023/07/29 05:56:49;;;;;;;10.83;3.43;;;17.80;98.20;;;;;;5039086;28;20064;-71
2023/07/29 05:59:15;;;;;;;7.67;2.90;;;17.90;98.10;;;;;;5049329;28;20080;-71
2023/07/29 06:01:40;;;;;;;10.20;3.83;;;18.00;98.10;;;;;;5047614;28;20030;-71
2023/07/29 06:04:06;;;;;;;11.57;3.30;;;18.10;97.80;;;;;;5040451;28;20071;-72
2023/07/29 06:06:32;;;;;;;7.63;3.37;;;18.20;97.20;;;;;;5043222;28;20583;-71
2023/07/29 06:08:58;;;;;;;12.03;3.50;;;18.30;97.10;;;;;;5032923;28;20044;-71
2023/07/29 06:11:23;;;;;;;11.43;3.57;;;18.40;96.80;;;;;;5003385;28;20046;-71
2023/07/29 06:13:49;;;;;;;5.77;2.80;;;18.50;96.50;;;;;;5009159;28;20045;-71
2023/07/29 06:16:15;;;;;;;10.07;3.17;;;18.60;96.00;;;;;;5010331;28;20441;-71
2023/07/29 06:18:40;;;;;;;9.30;3.33;;;18.80;96.00;;;;;;5005126;28;20052;-71
2023/07/29 06:21:07;;;;;;;9.27;2.47;;;19.00;95.60;;;;;;5006196;28;20116;-71
2023/07/29 06:23:36;;;;;;;8.13;2.90;;;19.10;94.40;;;;;;5004060;28;20045;-71
2023/07/29 06:26:02;;;;;;;7.87;2.67;;;19.40;94.30;;;;;;5005105;28;20053;-71
2023/07/29 06:28:27;;;;;;;9.23;2.80;;;19.50;92.20;;;;;;5010421;28;20049;-71
2023/07/29 06:30:53;;;;;;;10.17;2.93;;;19.60;91.20;;;;;;5006579;28;20042;-71
2023/07/29 06:33:19;;;;;;;7.63;2.90;;;19.60;91.10;;;;;;4983458;28;20042;-71
2023/07/29 06:35:44;;;;;;;10.07;2.83;;;19.70;90.80;;;;;;5006964;28;20532;-71
2023/07/29 06:38:10;;;;;;;9.83;2.77;;;19.60;89.60;;;;;;5007781;28;20037;-71
2023/07/29 06:40:36;;;;;;;7.83;2.60;;;19.60;90.20;;;;;;5008271;28;20033;-71
2023/07/29 06:43:01;;;;;;;11.30;2.70;;;19.50;90.20;;;;;;5005276;28;20045;-69
2023/07/29 06:45:27;;;;;;;9.03;2.90;;;19.40;89.80;;;;;;5004561;28;20064;-69
2023/07/29 06:47:53;;;;;;;8.90;2.73;;;19.30;89.50;;;;;;4989227;28;20049;-69
2023/07/29 06:50:19;;;;;;;8.97;2.53;;;19.20;90.30;;;;;;5009014;28;20053;-69
2023/07/29 06:52:45;;;;;;;12.03;3.27;;;19.10;90.50;;;;;;5006153;28;20041;-69
2023/07/29 06:55:11;;;;;;;7.33;2.73;;;19.00;90.70;;;;;;5002137;28;20046;-71
2023/07/29 06:57:36;;;;;;;8.33;2.70;;;19.00;91.30;;;;;;4988596;28;20095;-71
2023/07/29 07:00:03;;;;;;;9.63;2.73;;;19.00;90.90;;;;;;4999155;28;20048;-71
2023/07/29 07:02:28;;;;;;;12.17;3.00;;;19.00;90.90;;;;;;5002282;28;20429;-71
2023/07/29 07:04:54;;;;;;;7.67;2.67;;;19.00;91.20;;;;;;5003631;28;20041;-71
2023/07/29 07:07:20;;;;;;;9.57;3.10;;;19.10;91.30;;;;;;5003973;28;20099;-71
2023/07/29 07:09:47;;;;;;;8.10;2.37;;;19.20;91.40;;;;;;5018170;28;20080;-72
2023/07/29 07:12:12;;;;;;;7.93;2.43;;;19.30;90.60;;;;;;5041958;28;20068;-71
2023/07/29 07:14:38;;;;;;;7.87;2.57;;;19.30;90.70;;;;;;5030287;28;20079;-71
2023/07/29 07:17:04;;;;;;;7.23;2.53;;;19.40;89.50;;;;;;5046107;28;20478;-71
2023/07/29 07:19:30;;;;;;;4.47;2.20;;;19.50;90.20;;;;;;5045187;28;20476;-71
2023/07/29 07:21:56;;;;;;;10.27;2.33;;;19.70;89.90;;;;;;5044356;28;20047;-72
2023/07/29 07:24:22;;;;;;;9.87;2.27;;;19.90;88.80;;;;;;5021061;28;20474;-71
2023/07/29 07:26:48;;;;;;;7.43;2.40;;;20.10;88.30;;;;;;5044652;28;20052;-72
2023/07/29 07:29:14;;;;;;;10.77;2.53;;;20.20;87.60;;;;;;5045732;28;20047;-71
2023/07/29 07:31:40;;;;;;;8.90;2.60;;;20.10;86.70;;;;;;5030427;28;20106;-71
2023/07/29 07:34:06;;;;;;;8.47;2.60;;;20.00;86.90;;;;;;5044622;28;20046;-71
2023/07/29 07:36:31;;;;;;;8.77;2.23;;;19.90;88.00;;;;;;5026318;28;20040;-71
2023/07/29 07:38:57;;;;;;;6.77;2.47;;;19.90;88.20;;;;;;5042567;28;20041;-71
2023/07/29 07:41:23;;;;;;;9.53;2.00;;;20.00;88.10;;;;;;5043638;28;20117;-71
2023/07/29 07:43:49;;;;;;;8.83;2.23;;;20.30;88.20;;;;;;5043415;28;20565;-71
2023/07/29 07:46:15;;;;;;;11.50;2.60;;;20.30;87.00;;;;;;5044921;28;20040;-71
2023/07/29 07:48:41;;;;;;;11.10;2.87;;;20.40;86.60;;;;;;5040799;28;20041;-71
2023/07/29 07:51:13;;;;;;;6.17;2.30;;;20.40;86.60;;;;;;5040533;28;20448;-71
2023/07/29 07:53:40;;;;;;;9.17;1.93;;;20.50;86.90;;;;;;5036022;28;20043;-71
2023/07/29 07:56:06;;;;;;;6.90;1.70;;;20.50;85.90;;;;;;5043008;28;20056;-71
2023/07/29 07:58:32;;;;;;;8.83;2.23;;;20.60;86.70;;;;;;5027675;28;20083;-71
2023/07/29 08:01:06;;;;;;;7.40;2.37;;;20.70;85.70;;;;;;5042974;28;20119;-71
2023/07/29 08:03:32;;;;;;;7.50;1.70;;;20.70;86.00;;;;;;5044431;28;20033;-72
2023/07/29 08:05:58;;;;;;;7.23;1.83;;;20.60;84.40;;;;;;5042787;28;20468;-72
2023/07/29 08:08:24;;;;;;;4.83;1.53;;;20.60;85.20;;;;;;5043430;28;20045;-71
2023/07/29 08:10:52;;;;;;;9.90;1.90;;;20.60;85.10;;;;;;5028178;28;20067;-72
2023/07/29 08:13:17;;;;;;;6.80;1.90;;;20.60;85.10;;;;;;5027059;28;20037;-72
2023/07/29 08:15:49;;;;;;;6.87;2.23;;;20.70;84.80;;;;;;5038448;28;20101;-71
2023/07/29 08:18:16;;;;;;;6.27;1.87;;;20.60;84.90;;;;;;5038070;28;20135;-71
2023/07/29 08:20:51;;;;;;;5.03;1.60;;;20.50;83.80;;;;;;5037402;28;20531;-71
2023/07/29 08:23:16;;;;;;;6.03;1.33;;;20.40;83.40;;;;;;5035159;28;20266;-71
2023/07/29 08:25:42;;;;;;;5.03;1.20;;;20.40;82.70;;;;;;5036162;28;20516;-71
2023/07/29 08:28:08;;;;;;;4.30;1.17;;;20.50;82.10;;;;;;5033094;28;20048;-71
2023/07/29 08:30:33;;;;;;;5.83;1.47;;;20.60;81.00;;;;;;5027595;28;20048;-71
2023/07/29 08:32:59;;;;;;;8.67;1.97;;;20.80;81.60;;;;;;5028963;28;20611;-71
2023/07/29 08:35:25;;;;;;;5.50;1.70;;;21.00;80.80;;;;;;5037900;28;20370;-71
2023/07/29 08:37:50;;;;;;;7.70;2.00;;;21.00;80.30;;;;;;5032235;28;20469;-71
2023/07/29 08:40:16;;;;;;;6.83;1.70;;;21.00;80.10;;;;;;5033623;28;20065;-71
2023/07/29 08:42:45;;;;;;;5.30;1.70;;;21.10;80.40;;;;;;5034538;28;20045;-71
2023/07/29 08:45:11;;;;;;;5.23;1.40;;;21.30;81.60;;;;;;5018795;28;20123;-71
2023/07/29 08:47:37;;;;;;;3.90;1.40;;;21.60;81.70;;;;;;5047361;28;20041;-71
2023/07/29 08:50:03;;;;;;;4.37;1.17;;;21.90;80.90;;;;;;5025712;28;20045;-71
2023/07/29 08:52:32;;;;;;;4.00;1.63;;;22.30;80.00;;;;;;5037631;28;20065;-71
2023/07/29 08:54:58;;;;;;;4.33;1.27;;;22.30;76.50;;;;;;5022015;28;20060;-71
2023/07/29 08:57:25;;;;;;;2.37;1.20;;;22.10;76.20;;;;;;5033186;28;20080;-71
2023/07/29 08:59:50;;;;;;;4.37;1.40;;;22.00;77.10;;;;;;5028048;28;20037;-71
2023/07/29 09:02:17;;;;;;;6.10;1.50;;;21.80;76.50;;;;;;5046239;28;20437;-71
2023/07/29 09:04:43;;;;;;;5.37;1.47;;;21.60;77.40;;;;;;5020933;28;20052;-71
2023/07/29 09:07:10;;;;;;;4.97;1.30;;;21.50;78.30;;;;;;5038142;28;20041;-72
2023/07/29 09:09:35;;;;;;;6.03;2.10;;;21.50;79.60;;;;;;5034190;28;20057;-72
2023/07/29 09:12:02;;;;;;;3.93;1.37;;;21.50;79.50;;;;;;5038373;28;20050;-71
2023/07/29 09:14:28;;;;;;;6.50;1.47;;;21.60;79.90;;;;;;5036437;28;20052;-71
2023/07/29 09:16:54;;;;;;;4.40;1.43;;;21.70;79.90;;;;;;5035512;28;20694;-72
2023/07/29 09:19:19;;;;;;;4.80;1.33;;;21.70;79.30;;;;;;5040169;28;20037;-72
2023/07/29 09:21:46;;;;;;;5.57;1.40;;;21.80;79.60;;;;;;5040907;28;20037;-72
2023/07/29 09:24:15;;;;;;;4.13;1.40;;;22.00;79.10;;;;;;5037717;28;20080;-72
2023/07/29 09:26:49;;;;;;;4.47;1.30;;;22.10;78.30;;;;;;5036544;28;20040;-72
2023/07/29 09:29:15;;;;;;;2.38;1.23;;;22.20;78.30;;;;;;5036541;28;20037;-72
2023/07/29 09:31:40;;;;;;;2.53;1.00;;;22.20;78.10;;;;;;5036166;28;20044;-71
2023/07/29 09:34:06;;;;;;;4.53;1.30;;;22.20;78.70;;;;;;5037474;28;20459;-71
2023/07/29 09:36:33;;;;;;;5.83;1.40;;;22.20;78.50;;;;;;5039827;28;20133;-71
2023/07/29 09:38:59;;;;;;;6.40;1.20;;;22.10;78.40;;;;;;5036807;28;20068;-71
2023/07/29 09:41:27;;;;;;;3.80;1.33;;;22.10;77.80;;;;;;5034427;28;20045;-70
2023/07/29 09:44:00;;;;;;;4.17;1.10;;;22.10;78.00;;;;;;5039426;28;20112;-71
2023/07/29 09:46:33;;;;;;;4.83;1.10;;;22.10;77.20;;;;;;5042840;28;20045;-71
2023/07/29 09:48:59;;;;;;;5.60;1.13;;;22.00;74.50;;;;;;5050330;28;20045;-71
2023/07/29 09:51:24;;;;;;;4.10;1.10;;;21.80;76.40;;;;;;5026044;28;20394;-71
2023/07/29 09:53:54;;;;;;;5.20;1.00;;;21.70;76.20;;;;;;5037492;28;20075;-71
2023/07/29 09:56:26;;;;;;;2.33;1.00;;;21.50;77.30;;;;;;5040637;28;20086;-71
2023/07/29 09:58:52;;;;;;;4.33;0.90;;;21.50;76.70;;;;;;5040083;28;20044;-71
2023/07/29 10:01:18;;;;;;;2.77;0.83;;;21.50;75.50;;;;;;5040651;28;20485;-71
2023/07/29 10:03:45;;;;;;;4.03;1.10;;;21.50;76.00;;;;;;5044465;28;20124;-71
2023/07/29 10:06:11;;;;;;;5.17;1.20;;;21.50;76.20;;;;;;5041476;28;20041;-71
2023/07/29 10:08:39;;;;;;;4.10;1.03;;;21.60;76.80;;;;;;5041806;28;20563;-71
2023/07/29 10:11:10;;;;;;;4.10;0.80;;;21.70;75.10;;;;;;5040686;28;20060;-71
2023/07/29 10:13:37;;;;;;;4.50;0.83;;;21.90;75.70;;;;;;5041302;28;20040;-71
2023/07/29 10:16:03;;;;;;;5.17;1.30;;;21.90;75.40;;;;;;5039877;28;20085;-71
2023/07/29 10:18:31;;;;;;;2.97;0.90;;;21.80;75.70;;;;;;5028173;28;20043;-71
2023/07/29 10:20:58;;;;;;;3.93;0.73;;;21.70;75.90;;;;;;5038274;28;20064;-71
2023/07/29 10:23:26;;;;;;;2.13;0.70;;;21.80;75.80;;;;;;5041979;28;20029;-71
2023/07/29 10:26:02;;;;;;;2.10;0.60;;;21.90;74.40;;;;;;5032794;28;20041;-71
2023/07/29 10:28:30;;;;;;;2.53;0.43;;;21.70;73.30;;;;;;5036526;28;20107;-71
2023/07/29 10:30:58;;;;;;;2.37;0.70;;;21.60;74.40;;;;;;5037556;28;20045;-71
2023/07/29 10:33:24;;;;;;;2.77;0.90;;;21.60;74.40;;;;;;5028534;28;20155;-71
2023/07/29 10:35:50;;;;;;;1.93;0.90;;;21.70;73.70;;;;;;5044660;28;20088;-71
2023/07/29 10:38:17;;;;;;;4.00;1.27;;;21.80;74.70;;;;;;5036089;28;20040;-71
2023/07/29 10:40:59;;;;;;;3.40;1.03;;;21.90;73.90;;;;;;5041208;28;20047;-71
2023/07/29 10:43:37;;;;;;;3.23;1.13;;;21.80;73.70;;;;;;5035452;28;20037;-71
2023/07/29 10:46:19;;;;;;;4.43;1.23;;;21.70;75.00;;;;;;5040155;28;20041;-71
2023/07/29 10:48:51;;;;;;;4.53;1.43;;;21.60;75.20;;;;;;5038277;28;20544;-71
2023/07/29 10:51:49;;;;;;;4.43;1.40;;;21.30;75.80;;;;;;5041119;28;20041;-71
2023/07/29 10:54:15;;;;;;;4.83;1.90;;;21.10;77.80;;;;;;5034325;28;20049;-71
2023/07/29 10:56:46;;;;;;;5.30;1.70;;;20.80;81.40;;;;;;5037103;28;20132;-71
2023/07/29 10:59:12;;;;;;;4.03;1.50;;;20.60;85.20;;;;;;5045134;28;20045;-71
2023/07/29 11:01:40;;;;;;;3.20;1.10;;;20.60;85.00;;;;;;5033062;28;20571;-71
2023/07/29 11:04:23;;;;;;;3.13;1.27;;;20.60;84.10;;;;;;5037411;28;20270;-71
2023/07/29 11:07:28;;;;;;;3.80;1.20;;;20.70;83.90;;;;;;5032900;28;20041;-71
2023/07/29 11:10:04;;;;;;;4.80;1.30;;;20.70;83.70;;;;;;5000074;28;20485;-71
2023/07/29 11:12:54;;;;;;;5.37;1.60;;;20.60;82.50;;;;;;5015984;28;20045;-71
2023/07/29 11:15:28;;;;;;;5.23;2.00;;;20.50;83.40;;;;;;5038792;28;20412;-71
2023/07/29 11:18:01;;;;;;;6.07;1.97;;;20.30;84.70;;;;;;5041004;28;20036;-71
2023/07/29 11:20:32;;;;;;;8.63;2.40;;;20.10;85.20;;;;;;5035915;28;20045;-71
2023/07/29 11:23:00;;;;;;;6.37;2.20;;;19.90;85.50;;;;;;5032489;28;20680;-71
2023/07/29 11:25:28;;;;;;;5.40;2.13;;;19.80;86.20;;;;;;5061720;28;20045;-71
2023/07/29 11:27:56;;;;;;;3.97;2.23;;;19.70;88.20;;;;;;5041566;28;20048;-71
2023/07/29 11:30:30;;;;;;;6.77;2.50;;;19.70;89.10;;;;;;5042987;28;20052;-71
2023/07/29 11:32:58;;;;;;;7.32;2.60;;;19.90;90.70;;;;;;5035948;28;20048;-71
2023/07/29 11:35:24;;;;;;;7.60;2.63;;;20.30;91.20;;;;;;5028352;28;20041;-71
2023/07/29 11:37:52;;;;;;;6.07;2.60;;;20.60;89.70;;;;;;5039862;28;20041;-71
2023/07/29 11:40:22;;;;;;;4.40;2.00;;;20.80;85.90;;;;;;5054546;28;20075;-71
2023/07/29 11:42:50;;;;;;;6.77;2.20;;;20.60;84.30;;;;;;5032088;28;20343;-71
2023/07/29 11:45:17;;;;;;;4.23;2.07;;;20.40;85.00;;;;;;5039623;28;20045;-71
2023/07/29 11:47:42;;;;;;;5.87;1.60;;;20.20;85.90;;;;;;5031723;28;20036;-71
2023/07/29 11:50:10;;;;;;;6.20;1.60;;;20.20;86.50;;;;;;5037127;28;20382;-71
2023/07/29 11:52:37;;;;;;;5.83;1.50;;;20.20;86.50;;;;;;5036111;28;20048;-71
2023/07/29 11:55:05;;;;;;;5.07;1.73;;;20.30;84.00;;;;;;5032056;28;20500;-71
2023/07/29 11:57:34;;;;;;;3.93;1.47;;;20.40;84.80;;;;;;5032205;28;20040;-71
2023/07/29 12:00:03;;;;;;;5.97;1.50;;;20.50;83.50;;;;;;5039805;28;20128;-71
2023/07/29 12:02:29;;;;;;;4.40;1.13;;;20.70;81.50;;;;;;5035715;28;20119;-71
2023/07/29 12:04:57;;;;;;;6.03;1.10;;;20.80;80.50;;;;;;5036216;28;20511;-71
2023/07/29 12:07:23;;;;;;;4.87;1.60;;;20.90;80.00;;;;;;5031547;28;20041;-71
2023/07/29 12:09:50;;;;;;;4.27;1.50;;;20.90;78.90;;;;;;5024956;28;20045;-71
2023/07/29 12:12:16;;;;;;;5.20;1.50;;;20.90;79.10;;;;;;5039576;28;20115;-71
2023/07/29 12:14:48;;;;;;;7.10;1.50;;;20.80;79.90;;;;;;5041734;28;20120;-71
2023/07/29 12:17:14;;;;;;;5.57;1.60;;;20.80;80.00;;;;;;5031326;28;20137;-71
2023/07/29 12:19:41;;;;;;;5.10;1.60;;;20.80;80.00;;;;;;5044205;28;20065;-71
2023/07/29 12:22:10;;;;;;;5.83;1.47;;;20.70;79.90;;;;;;5033243;28;20442;-71
2023/07/29 12:24:40;;;;;;;4.47;1.30;;;20.70;80.00;;;;;;5033040;28;20083;-71
2023/07/29 12:27:11;;;;;;;5.20;1.30;;;20.70;79.20;;;;;;5035135;28;20851;-70
2023/07/29 12:29:42;;;;;;;5.17;1.40;;;20.80;79.20;;;;;;5030805;28;20045;-71
2023/07/29 12:32:08;;;;;;;4.07;1.33;;;20.80;76.70;;;;;;5026376;28;20379;-71
2023/07/29 12:34:35;;;;;;;3.93;1.60;;;20.80;76.00;;;;;;5019903;28;20101;-71
2023/07/29 12:37:03;;;;;;;5.03;1.50;;;20.90;76.60;;;;;;5032062;28;20048;-71
2023/07/29 12:39:33;;;;;;;3.80;1.37;;;21.00;75.90;;;;;;5034266;28;20060;-71
2023/07/29 12:42:01;;;;;;;3.43;1.43;;;21.20;74.70;;;;;;5017858;28;20045;-71
2023/07/29 12:44:34;;;;;;;5.27;1.43;;;21.50;74.80;;;;;;5034342;28;20581;-71
2023/07/29 12:47:05;;;;;;;6.27;1.50;;;21.70;73.80;;;;;;5037174;28;20565;-71